Time;durP1;ratioP1;P1;durP2;ratioP2;P2;SDS_P1;SDS_P2;PMS_P1;PMS_P2;Temp;Humidity;BMP_temperature;BMP_pressure;BME280_temperature;BME280_humidity;BME280_pressure;Samples;Min_cycle;Max_cycle;Signal;HPM_P1;HPM_P2
2021/06/18 00:00:42;;;;;;;;;;;;;;;;;;5069178;28;19912;-82
2021/06/18 00:03:08;;;;;;;;;;;;;;;;;;5060284;28;19927;-82
2021/06/18 00:05:34;;;;;;;;;;;;;;;;;;5066464;28;19909;-82
2021/06/18 00:08:00;;;;;;;;;;;;;;;;;;5068055;28;19959;-83
2021/06/18 00:10:26;;;;;;;;;;;;;;;;;;5062082;28;19913;-83
2021/06/18 00:12:52;;;;;;;;;;;;;;;;;;5049606;28;20327;-82
2021/06/18 00:15:18;;;;;;;;;;;;;;;;;;5068826;28;19999;-82
2021/06/18 00:17:46;;;;;;;;;;;;;;;;;;5071554;28;19954;-82
2021/06/18 00:20:11;;;;;;;;;;;;;;;;;;5059207;28;19916;-82
2021/06/18 00:22:37;;;;;;;;;;;;;;;;;;5069442;28;20428;-82
2021/06/18 00:25:03;;;;;;;;;;;;;;;;;;5072253;28;19948;-82
2021/06/18 00:27:29;;;;;;;;;;;;;;;;;;5064774;28;19919;-82
2021/06/18 00:29:55;;;;;;;;;;;;;;;;;;5073889;28;19913;-82
2021/06/18 00:32:21;;;;;;;;;;;;;;;;;;5070980;28;19917;-82
2021/06/18 00:34:47;;;;;;;;;;;;;;;;;;5069382;28;19924;-82
2021/06/18 00:37:13;;;;;;;;;;;;;;;;;;5075473;28;20367;-82
2021/06/18 00:39:40;;;;;;;;;;;;;;;;;;5071401;28;19912;-82
2021/06/18 00:42:06;;;;;;;;;;;;;;;;;;5071430;28;19912;-82
2021/06/18 00:44:32;;;;;;;;;;;;;;;;;;5073997;28;20049;-82
2021/06/18 00:46:58;;;;;;;;;;;;;;;;;;5067044;28;20467;-82
2021/06/18 00:49:24;;;;;;;;;;;;;;;;;;5078163;28;19913;-82
2021/06/18 00:51:50;;;;;;;;;;;;;;;;;;5062611;28;19931;-82
2021/06/18 00:54:27;;;;;;;;;;;;;;;;;;5072537;28;19913;-82
2021/06/18 00:56:53;;;;;;;;;;;;;;;;;;5069458;28;19921;-82
2021/06/18 00:59:19;;;;;;;;;;;;;;;;;;5067510;28;19928;-82
2021/06/18 01:01:45;;;;;;;;;;;;;;;;;;5066710;28;20390;-82
2021/06/18 01:04:11;;;;;;;;;;;;;;;;;;5068207;28;19956;-83
2021/06/18 01:06:37;;;;;;;;;;;;;;;;;;5069548;28;20316;-82
2021/06/18 01:09:03;;;;;;;;;;;;;;;;;;5059593;28;19940;-82
2021/06/18 01:11:29;;;;;;;;;;;;;;;;;;5069746;28;20653;-82
2021/06/18 01:13:55;;;;;;;;;;;;;;;;;;5063563;28;19920;-82
2021/06/18 01:16:21;;;;;;;;;;;;;;;;;;5062719;28;19967;-82
2021/06/18 01:18:47;;;;;;;;;;;;;;;;;;5068980;28;19913;-82
2021/06/18 01:21:13;;;;;;;;;;;;;;;;;;5066660;28;19935;-82
2021/06/18 01:23:39;;;;;;;;;;;;;;;;;;5062404;28;20282;-82
2021/06/18 01:26:04;;;;;;;;;;;;;;;;;;5061868;28;20383;-82
2021/06/18 01:28:30;;;;;;;;;;;;;;;;;;5067179;28;19913;-82
2021/06/18 01:30:56;;;;;;;;;;;;;;;;;;5067490;28;19958;-82
2021/06/18 01:33:22;;;;;;;;;;;;;;;;;;5059802;28;19917;-82
2021/06/18 01:35:48;;;;;;;;;;;;;;;;;;5071073;28;19970;-82
2021/06/18 01:38:14;;;;;;;;;;;;;;;;;;5066821;28;19912;-82
2021/06/18 01:40:40;;;;;;;;;;;;;;;;;;5059834;28;19992;-82
2021/06/18 01:43:06;;;;;;;;;;;;;;;;;;5067179;28;19913;-82
2021/06/18 01:45:32;;;;;;;;;;;;;;;;;;5066649;28;19991;-82
2021/06/18 01:47:58;;;;;;;;;;;;;;;;;;5058553;28;20049;-81
2021/06/18 01:50:24;;;;;;;;;;;;;;;;;;5069604;28;19992;-81
2021/06/18 01:52:50;;;;;;;;;;;;;;;;;;5072981;28;19912;-82
2021/06/18 01:55:16;;;;;;;;;;;;;;;;;;5071483;28;19928;-82
2021/06/18 01:57:41;;;;;;;;;;;;;;;;;;5068715;28;19909;-82
2021/06/18 02:00:07;;;;;;;;;;;;;;;;;;5069106;28;20367;-82
2021/06/18 02:02:33;;;;;;;;;;;;;;;;;;5061694;28;19951;-82
2021/06/18 02:04:59;;;;;;;;;;;;;;;;;;5065948;28;19916;-82
2021/06/18 02:07:25;;;;;;;;;;;;;;;;;;5068945;28;19947;-82
2021/06/18 02:09:51;;;;;;;;;;;;;;;;;;5073627;28;19943;-82
2021/06/18 02:12:17;;;;;;;;;;;;;;;;;;5065796;28;19913;-82
2021/06/18 02:14:43;;;;;;;;;;;;;;;;;;5072643;28;19923;-82
2021/06/18 02:17:09;;;;;;;;;;;;;;;;;;5072715;28;20267;-82
2021/06/18 02:19:35;;;;;;;;;;;;;;;;;;5058862;28;19916;-82
2021/06/18 02:22:01;;;;;;;;;;;;;;;;;;5067746;28;19913;-82
2021/06/18 02:24:27;;;;;;;;;;;;;;;;;;5067410;28;19920;-82
2021/06/18 02:26:53;;;;;;;;;;;;;;;;;;5064045;28;19912;-82
2021/06/18 02:29:19;;;;;;;;;;;;;;;;;;5072505;28;19920;-82
2021/06/18 02:31:45;;;;;;;;;;;;;;;;;;5071102;28;20272;-82
2021/06/18 02:34:11;;;;;;;;;;;;;;;;;;5063041;28;19916;-82
2021/06/18 02:36:37;;;;;;;;;;;;;;;;;;5059664;28;19919;-82
2021/06/18 02:39:03;;;;;;;;;;;;;;;;;;5074668;28;19958;-82
2021/06/18 02:41:29;;;;;;;;;;;;;;;;;;5071601;28;20265;-82
2021/06/18 02:43:55;;;;;;;;;;;;;;;;;;5060157;28;19963;-82
2021/06/18 02:46:20;;;;;;;;;;;;;;;;;;5060976;28;19909;-82
2021/06/18 02:48:46;;;;;;;;;;;;;;;;;;5064099;28;19912;-82
2021/06/18 02:51:12;;;;;;;;;;;;;;;;;;5068704;28;19916;-82
2021/06/18 02:53:39;;;;;;;;;;;;;;;;;;5066978;28;19978;-82
2021/06/18 02:56:05;;;;;;;;;;;;;;;;;;5061702;28;19920;-82
2021/06/18 02:58:30;;;;;;;;;;;;;;;;;;5061132;28;19912;-81
2021/06/18 03:00:56;;;;;;;;;;;;;;;;;;5060680;28;19908;-82
2021/06/18 03:03:22;;;;;;;;;;;;;;;;;;5062805;28;19913;-82
2021/06/18 03:05:48;;;;;;;;;;;;;;;;;;5068945;28;19986;-82
2021/06/18 03:08:14;;;;;;;;;;;;;;;;;;5063884;28;20578;-80
2021/06/18 03:10:40;;;;;;;;;;;;;;;;;;5067057;28;19987;-81
2021/06/18 03:13:06;;;;;;;;;;;;;;;;;;5069088;28;20379;-81
2021/06/18 03:15:32;;;;;;;;;;;;;;;;;;5065425;28;20015;-82
2021/06/18 03:17:58;;;;;;;;;;;;;;;;;;5057734;28;19915;-81
2021/06/18 03:20:24;;;;;;;;;;;;;;;;;;5066597;28;20282;-82
2021/06/18 03:22:50;;;;;;;;;;;;;;;;;;5061966;28;19917;-80
2021/06/18 03:25:15;;;;;;;;;;;;;;;;;;5065917;28;20283;-81
2021/06/18 03:27:41;;;;;;;;;;;;;;;;;;5071548;28;19919;-81
2021/06/18 03:30:07;;;;;;;;;;;;;;;;;;5068337;28;19939;-80
2021/06/18 03:32:33;;;;;;;;;;;;;;;;;;5064643;28;20660;-81
2021/06/18 03:34:59;;;;;;;;;;;;;;;;;;5074281;28;19924;-81
2021/06/18 03:37:25;;;;;;;;;;;;;;;;;;5070221;28;19912;-81
2021/06/18 03:39:51;;;;;;;;;;;;;;;;;;5060181;28;20437;-81
2021/06/18 03:42:17;;;;;;;;;;;;;;;;;;5060194;28;19963;-81
2021/06/18 03:44:43;;;;;;;;;;;;;;;;;;5061562;28;20423;-81
2021/06/18 03:47:09;;;;;;;;;;;;;;;;;;5071008;28;19967;-82
2021/06/18 03:49:35;;;;;;;;;;;;;;;;;;5068040;28;19912;-82
2021/06/18 03:52:00;;;;;;;;;;;;;;;;;;5061145;28;19917;-80
2021/06/18 03:54:26;;;;;;;;;;;;;;;;;;5059431;28;20282;-81
2021/06/18 03:56:52;;;;;;;;;;;;;;;;;;5067068;28;19940;-81
2021/06/18 03:59:18;;;;;;;;;;;;;;;;;;5065915;28;19913;-82
2021/06/18 04:01:44;;;;;;;;;;;;;;;;;;5063902;28;19913;-81
2021/06/18 04:04:10;;;;;;;;;;;;;;;;;;5059267;28;20361;-81
2021/06/18 04:06:36;;;;;;;;;;;;;;;;;;5072091;28;19912;-81
2021/06/18 04:09:02;;;;;;;;;;;;;;;;;;5070397;28;19921;-81
2021/06/18 04:11:28;;;;;;;;;;;;;;;;;;5061102;28;20291;-81
2021/06/18 04:13:54;;;;;;;;;;;;;;;;;;5057819;28;20700;-82
2021/06/18 04:16:20;;;;;;;;;;;;;;;;;;5072811;28;19930;-81
2021/06/18 04:18:46;;;;;;;;;;;;;;;;;;5063325;28;19916;-81
2021/06/18 04:21:11;;;;;;;;;;;;;;;;;;5060581;28;19913;-81
2021/06/18 04:23:37;;;;;;;;;;;;;;;;;;5060270;28;20971;-82
2021/06/18 04:26:03;;;;;;;;;;;;;;;;;;5062323;28;19920;-82
2021/06/18 04:28:29;;;;;;;;;;;;;;;;;;5054603;28;20390;-81
2021/06/18 04:30:55;;;;;;;;;;;;;;;;;;5066322;28;19940;-81
2021/06/18 04:33:21;;;;;;;;;;;;;;;;;;5068872;28;19913;-81
2021/06/18 04:35:47;;;;;;;;;;;;;;;;;;5060939;28;19919;-80
2021/06/18 04:38:13;;;;;;;;;;;;;;;;;;5058362;28;19935;-82
2021/06/18 04:40:39;;;;;;;;;;;;;;;;;;5063191;28;19913;-82
2021/06/18 04:43:05;;;;;;;;;;;;;;;;;;5066261;28;19919;-80
2021/06/18 04:45:31;;;;;;;;;;;;;;;;;;5066629;28;20305;-80
2021/06/18 04:47:58;;;;;;;;;;;;;;;;;;5075864;28;19912;-82
2021/06/18 04:50:24;;;;;;;;;;;;;;;;;;5069470;28;19917;-82
2021/06/18 04:52:50;;;;;;;;;;;;;;;;;;5057979;28;19913;-81
2021/06/18 04:55:17;;;;;;;;;;;;;;;;;;5065219;28;19916;-81
2021/06/18 04:57:43;;;;;;;;;;;;;;;;;;5063424;28;20377;-80
2021/06/18 05:00:09;;;;;;;;;;;;;;;;;;5063467;28;20003;-80
2021/06/18 05:02:35;;;;;;;;;;;;;;;;;;5066669;28;20448;-81
2021/06/18 05:05:01;;;;;;;;;;;;;;;;;;5066028;28;19909;-80
2021/06/18 05:07:27;;;;;;;;;;;;;;;;;;5068017;28;19912;-81
2021/06/18 05:09:53;;;;;;;;;;;;;;;;;;5064744;28;19913;-81
2021/06/18 05:12:18;;;;;;;;;;;;;;;;;;5067729;28;19920;-81
2021/06/18 05:14:44;;;;;;;;;;;;;;;;;;5067463;28;19924;-81
2021/06/18 05:17:10;;;;;;;;;;;;;;;;;;5065038;28;19944;-81
2021/06/18 05:19:36;;;;;;;;;;;;;;;;;;5066718;28;19913;-80
2021/06/18 05:22:02;;;;;;;;;;;;;;;;;;5071501;28;20402;-79
2021/06/18 05:24:28;;;;;;;;;;;;;;;;;;5068279;28;19912;-82
2021/06/18 05:26:55;;;;;;;;;;;;;;;;;;5074177;28;19912;-80
2021/06/18 05:29:20;;;;;;;;;;;;;;;;;;5065288;28;20015;-80
2021/06/18 05:31:46;;;;;;;;;;;;;;;;;;5057669;28;19967;-79
2021/06/18 05:34:12;;;;;;;;;;;;;;;;;;5072098;28;20355;-79
2021/06/18 05:36:39;;;;;;;;;;;;;;;;;;5074405;28;19920;-79
2021/06/18 05:39:05;;;;;;;;;;;;;;;;;;5063395;28;19912;-79
2021/06/18 05:41:31;;;;;;;;;;;;;;;;;;5061085;28;19916;-78
2021/06/18 05:43:57;;;;;;;;;;;;;;;;;;5068224;28;20390;-78
2021/06/18 05:46:23;;;;;;;;;;;;;;;;;;5070536;28;19923;-80
2021/06/18 05:48:48;;;;;;;;;;;;;;;;;;5063537;28;19909;-80
2021/06/18 05:51:14;;;;;;;;;;;;;;;;;;5063247;28;20326;-80
2021/06/18 05:53:40;;;;;;;;;;;;;;;;;;5063343;28;19989;-81
2021/06/18 05:56:06;;;;;;;;;;;;;;;;;;5067350;28;19919;-78
2021/06/18 05:58:32;;;;;;;;;;;;;;;;;;5082826;28;19912;-81
2021/06/18 06:00:58;;;;;;;;;;;;;;;;;;5068996;28;19927;-77
2021/06/18 06:03:24;;;;;;;;;;;;;;;;;;5070945;28;19920;-77
2021/06/18 06:05:50;;;;;;;;;;;;;;;;;;5061761;28;19909;-77
2021/06/18 06:08:16;;;;;;;;;;;;;;;;;;5065763;28;19916;-79
2021/06/18 06:10:42;;;;;;;;;;;;;;;;;;5065386;28;19908;-77
2021/06/18 06:13:09;;;;;;;;;;;;;;;;;;5072679;28;19916;-77
2021/06/18 06:15:35;;;;;;;;;;;;;;;;;;5065609;28;19916;-77
2021/06/18 06:18:01;;;;;;;;;;;;;;;;;;5072394;28;19927;-77
2021/06/18 06:20:27;;;;;;;;;;;;;;;;;;5065614;28;20401;-77
2021/06/18 06:22:52;;;;;;;;;;;;;;;;;;5065512;28;19909;-78
2021/06/18 06:25:18;;;;;;;;;;;;;;;;;;5067669;28;20006;-77
2021/06/18 06:27:44;;;;;;;;;;;;;;;;;;5059014;28;20371;-77
2021/06/18 06:30:10;;;;;;;;;;;;;;;;;;5075900;28;20274;-78
2021/06/18 06:32:36;;;;;;;;;;;;;;;;;;5065636;28;19951;-78
2021/06/18 06:35:03;;;;;;;;;;;;;;;;;;5064129;28;20382;-77
2021/06/18 06:37:29;;;;;;;;;;;;;;;;;;5063125;28;19913;-77
2021/06/18 06:39:55;;;;;;;;;;;;;;;;;;5063980;28;19967;-78
2021/06/18 06:42:21;;;;;;;;;;;;;;;;;;5063878;28;20371;-78
2021/06/18 06:44:46;;;;;;;;;;;;;;;;;;5065451;28;19960;-79
2021/06/18 06:47:12;;;;;;;;;;;;;;;;;;5071922;28;20275;-79
2021/06/18 06:49:38;;;;;;;;;;;;;;;;;;5066840;28;20287;-79
2021/06/18 06:52:04;;;;;;;;;;;;;;;;;;5063612;28;19909;-79
2021/06/18 06:54:30;;;;;;;;;;;;;;;;;;5067798;28;20272;-78
2021/06/18 06:56:56;;;;;;;;;;;;;;;;;;5065426;28;20010;-79
2021/06/18 06:59:22;;;;;;;;;;;;;;;;;;5064103;28;20298;-78
2021/06/18 07:01:48;;;;;;;;;;;;;;;;;;5068914;28;20333;-79
2021/06/18 07:04:14;;;;;;;;;;;;;;;;;;5063058;28;19947;-78
2021/06/18 07:06:40;;;;;;;;;;;;;;;;;;5054434;28;20256;-79
2021/06/18 07:09:06;;;;;;;;;;;;;;;;;;5055605;28;20445;-77
2021/06/18 07:11:32;;;;;;;;;;;;;;;;;;5054300;28;19931;-77
2021/06/18 07:13:58;;;;;;;;;;;;;;;;;;5063708;28;19961;-77
2021/06/18 07:16:24;;;;;;;;;;;;;;;;;;5069611;28;19957;-78
2021/06/18 07:18:50;;;;;;;;;;;;;;;;;;5076623;28;19915;-78
2021/06/18 07:21:16;;;;;;;;;;;;;;;;;;5070170;28;19924;-78
2021/06/18 07:23:42;;;;;;;;;;;;;;;;;;5067104;28;20306;-80
2021/06/18 07:26:10;;;;;;;;;;;;;;;;;;5064249;28;20399;-78
2021/06/18 07:28:35;;;;;;;;;;;;;;;;;;5059876;28;19978;-77
2021/06/18 07:31:01;;;;;;;;;;;;;;;;;;5061874;28;19995;-77
2021/06/18 07:33:27;;;;;;;;;;;;;;;;;;5052021;28;19915;-77
2021/06/18 07:35:53;;;;;;;;;;;;;;;;;;5065419;28;19928;-77
2021/06/18 07:38:19;;;;;;;;;;;;;;;;;;5085676;28;20089;-77
2021/06/18 07:40:45;;;;;;;;;;;;;;;;;;5073174;28;20379;-77
2021/06/18 07:43:11;;;;;;;;;;;;;;;;;;5066368;28;19967;-77
2021/06/18 07:45:37;;;;;;;;;;;;;;;;;;5059493;28;19961;-78
2021/06/18 07:48:08;;;;;;;;;;;;;;;;;;5065461;28;20379;-78
2021/06/18 07:50:34;;;;;;;;;;;;;;;;;;5069880;28;19917;-77
2021/06/18 07:53:00;;;;;;;;;;;;;;;;;;5065860;28;19919;-78
2021/06/18 07:55:26;;;;;;;;;;;;;;;;;;5071933;28;20295;-78
2021/06/18 07:57:52;;;;;;;;;;;;;;;;;;5079258;28;19913;-77
2021/06/18 08:00:18;;;;;;;;;;;;;;;;;;5064704;28;19913;-78
2021/06/18 08:02:44;;;;;;;;;;;;;;;;;;5056616;28;19909;-77
2021/06/18 08:05:11;;;;;;;;;;;;;;;;;;5069547;28;19920;-77
2021/06/18 08:07:37;;;;;;;;;;;;;;;;;;5070305;28;19912;-78
2021/06/18 08:10:03;;;;;;;;;;;;;;;;;;5063009;28;19927;-78
2021/06/18 08:12:29;;;;;;;;;;;;;;;;;;5056978;28;19909;-77
2021/06/18 08:14:55;;;;;;;;;;;;;;;;;;5061906;28;20003;-78
2021/06/18 08:17:21;;;;;;;;;;;;;;;;;;5065176;28;20360;-77
2021/06/18 08:19:47;;;;;;;;;;;;;;;;;;5065284;28;19976;-77
2021/06/18 08:22:13;;;;;;;;;;;;;;;;;;5068202;28;19963;-78
2021/06/18 08:24:39;;;;;;;;;;;;;;;;;;5075671;28;19913;-78
2021/06/18 08:27:05;;;;;;;;;;;;;;;;;;5063221;28;19908;-78
2021/06/18 08:29:31;;;;;;;;;;;;;;;;;;5069718;28;19978;-78
2021/06/18 08:31:57;;;;;;;;;;;;;;;;;;5071944;28;19917;-78
2021/06/18 08:34:23;;;;;;;;;;;;;;;;;;5065699;28;19922;-77
2021/06/18 08:36:49;;;;;;;;;;;;;;;;;;5069163;28;20283;-77
2021/06/18 08:39:15;;;;;;;;;;;;;;;;;;5066680;28;19919;-78
2021/06/18 08:41:42;;;;;;;;;;;;;;;;;;5066064;28;20311;-77
2021/06/18 08:44:08;;;;;;;;;;;;;;;;;;5073475;28;19913;-77
2021/06/18 08:46:34;;;;;;;;;;;;;;;;;;5074098;28;19919;-77
2021/06/18 08:49:00;;;;;;;;;;;;;;;;;;5070405;28;20313;-77
2021/06/18 08:51:26;;;;;;;;;;;;;;;;;;5056759;28;19912;-78
2021/06/18 08:53:53;;;;;;;;;;;;;;;;;;5063599;28;19920;-78
2021/06/18 08:56:19;;;;;;;;;;;;;;;;;;5071263;28;19954;-78
2021/06/18 08:58:45;;;;;;;;;;;;;;;;;;5072139;28;20279;-78
2021/06/18 09:01:11;;;;;;;;;;;;;;;;;;5065077;28;20299;-78
2021/06/18 09:03:37;;;;;;;;;;;;;;;;;;5071923;28;19912;-78
2021/06/18 09:06:02;;;;;;;;;;;;;;;;;;5070003;28;19912;-77
2021/06/18 09:08:29;;;;;;;;;;;;;;;;;;5076878;28;19908;-77
2021/06/18 09:10:54;;;;;;;;;;;;;;;;;;5067575;28;19920;-78
2021/06/18 09:13:20;;;;;;;;;;;;;;;;;;5068373;28;19912;-74
2021/06/18 09:15:46;;;;;;;;;;;;;;;;;;5053527;28;19917;-75
2021/06/18 09:18:12;;;;;;;;;;;;;;;;;;5066449;28;20369;-75
2021/06/18 09:20:38;;;;;;;;;;;;;;;;;;5061946;28;19950;-75
2021/06/18 09:23:04;;;;;;;;;;;;;;;;;;5067401;28;20310;-75
2021/06/18 09:25:30;;;;;;;;;;;;;;;;;;5063423;28;19908;-75
2021/06/18 09:27:56;;;;;;;;;;;;;;;;;;5074282;28;20335;-75
2021/06/18 09:30:22;;;;;;;;;;;;;;;;;;5067950;28;20279;-75
2021/06/18 09:32:48;;;;;;;;;;;;;;;;;;5063146;28;19916;-75
2021/06/18 09:35:14;;;;;;;;;;;;;;;;;;5068065;28;19917;-75
2021/06/18 09:37:40;;;;;;;;;;;;;;;;;;5066317;28;19919;-75
2021/06/18 09:40:06;;;;;;;;;;;;;;;;;;5060216;28;20011;-75
2021/06/18 09:42:32;;;;;;;;;;;;;;;;;;5062596;28;20604;-75
2021/06/18 09:44:57;;;;;;;;;;;;;;;;;;5072122;28;20003;-77
2021/06/18 09:47:23;;;;;;;;;;;;;;;;;;5060763;28;19988;-75
2021/06/18 09:49:50;;;;;;;;;;;;;;;;;;5062602;28;20402;-74
2021/06/18 09:52:18;;;;;;;;;;;;;;;;;;5067159;28;19920;-75
2021/06/18 09:54:45;;;;;;;;;;;;;;;;;;5067541;28;19923;-75
2021/06/18 09:57:11;;;;;;;;;;;;;;;;;;5072056;28;20003;-75
2021/06/18 09:59:36;;;;;;;;;;;;;;;;;;5073809;28;19969;-77
2021/06/18 10:02:02;;;;;;;;;;;;;;;;;;5061515;28;20330;-75
2021/06/18 10:04:28;;;;;;;;;;;;;;;;;;5061167;28;19958;-75
2021/06/18 10:06:54;;;;;;;;;;;;;;;;;;5070126;28;19999;-76
2021/06/18 10:09:20;;;;;;;;;;;;;;;;;;5069979;28;19912;-76
2021/06/18 10:11:46;;;;;;;;;;;;;;;;;;5057054;28;20325;-76
2021/06/18 10:14:12;;;;;;;;;;;;;;;;;;5065532;28;19923;-76
2021/06/18 10:16:38;;;;;;;;;;;;;;;;;;5067481;28;19922;-76
2021/06/18 10:19:04;;;;;;;;;;;;;;;;;;5070722;28;19971;-75
2021/06/18 10:21:30;;;;;;;;;;;;;;;;;;5063473;28;19919;-75
2021/06/18 10:23:56;;;;;;;;;;;;;;;;;;5063662;28;19998;-77
2021/06/18 10:26:22;;;;;;;;;;;;;;;;;;5064760;28;20572;-76
2021/06/18 10:28:48;;;;;;;;;;;;;;;;;;5056174;28;19920;-76
2021/06/18 10:31:13;;;;;;;;;;;;;;;;;;5063163;28;19924;-76
2021/06/18 10:33:39;;;;;;;;;;;;;;;;;;5070459;28;19973;-76
2021/06/18 10:36:06;;;;;;;;;;;;;;;;;;5066846;28;19944;-76
2021/06/18 10:38:32;;;;;;;;;;;;;;;;;;5067858;28;19968;-76
2021/06/18 10:40:58;;;;;;;;;;;;;;;;;;5063435;28;20086;-76
2021/06/18 10:43:24;;;;;;;;;;;;;;;;;;5065776;28;19912;-76
2021/06/18 10:45:50;;;;;;;;;;;;;;;;;;5062408;28;19913;-76
2021/06/18 10:48:17;;;;;;;;;;;;;;;;;;5066997;28;19920;-76
2021/06/18 10:50:43;;;;;;;;;;;;;;;;;;5059583;28;20389;-76
2021/06/18 10:53:09;;;;;;;;;;;;;;;;;;5060511;28;20012;-76
2021/06/18 10:55:35;;;;;;;;;;;;;;;;;;5063685;28;19916;-76
2021/06/18 10:58:01;;;;;;;;;;;;;;;;;;5063107;28;19912;-77
2021/06/18 11:00:27;;;;;;;;;;;;;;;;;;5065172;28;20482;-76
2021/06/18 11:02:53;;;;;;;;;;;;;;;;;;5061679;28;19990;-76
2021/06/18 11:05:20;;;;;;;;;;;;;;;;;;5065632;28;20382;-76
2021/06/18 11:07:46;;;;;;;;;;;;;;;;;;5061742;28;21127;-76
2021/06/18 11:10:14;;;;;;;;;;;;;;;;;;5065003;28;19920;-76
2021/06/18 11:12:40;;;;;;;;;;;;;;;;;;5062791;28;19917;-76
2021/06/18 11:15:06;;;;;;;;;;;;;;;;;;5059045;28;19949;-76
2021/06/18 11:17:32;;;;;;;;;;;;;;;;;;5061295;28;19912;-76
2021/06/18 11:19:57;;;;;;;;;;;;;;;;;;5066137;28;19912;-77
2021/06/18 11:22:23;;;;;;;;;;;;;;;;;;5063176;28;19912;-76
2021/06/18 11:24:49;;;;;;;;;;;;;;;;;;5054309;28;19916;-76
2021/06/18 11:27:15;;;;;;;;;;;;;;;;;;5061682;28;19936;-76
2021/06/18 11:29:41;;;;;;;;;;;;;;;;;;5064369;28;19919;-76
2021/06/18 11:32:07;;;;;;;;;;;;;;;;;;5061556;28;19916;-77
2021/06/18 11:34:33;;;;;;;;;;;;;;;;;;5067136;28;20015;-76
2021/06/18 11:37:00;;;;;;;;;;;;;;;;;;5061502;28;21366;-77
2021/06/18 11:39:26;;;;;;;;;;;;;;;;;;5063255;28;20377;-76
2021/06/18 11:41:52;;;;;;;;;;;;;;;;;;5068801;28;20412;-76
2021/06/18 11:44:21;;;;;;;;;;;;;;;;;;5068767;28;20517;-76
2021/06/18 11:46:48;;;;;;;;;;;;;;;;;;5058311;28;19995;-76
2021/06/18 11:49:15;;;;;;;;;;;;;;;;;;5064136;28;19909;-76
2021/06/18 11:51:41;;;;;;;;;;;;;;;;;;5060676;28;19970;-77
2021/06/18 11:54:06;;;;;;;;;;;;;;;;;;5066216;28;19920;-77
2021/06/18 11:56:33;;;;;;;;;;;;;;;;;;5063068;28;20020;-77
2021/06/18 11:58:59;;;;;;;;;;;;;;;;;;5064029;28;19920;-77
2021/06/18 12:01:25;;;;;;;;;;;;;;;;;;5065164;28;19919;-77
2021/06/18 12:03:51;;;;;;;;;;;;;;;;;;5064081;28;19919;-77
2021/06/18 12:06:17;;;;;;;;;;;;;;;;;;5066234;28;20323;-77
2021/06/18 12:08:43;;;;;;;;;;;;;;;;;;5062837;28;19919;-77
2021/06/18 12:11:09;;;;;;;;;;;;;;;;;;5065186;28;19952;-76
2021/06/18 12:13:34;;;;;;;;;;;;;;;;;;5078529;28;20078;-77
2021/06/18 12:16:00;;;;;;;;;;;;;;;;;;5063661;28;20394;-76
2021/06/18 12:18:26;;;;;;;;;;;;;;;;;;5066412;28;19924;-77
2021/06/18 12:20:52;;;;;;;;;;;;;;;;;;5064637;28;19915;-76
2021/06/18 12:23:18;;;;;;;;;;;;;;;;;;5066714;28;20260;-77
2021/06/18 12:25:44;;;;;;;;;;;;;;;;;;5063519;28;19927;-77
2021/06/18 12:28:10;;;;;;;;;;;;;;;;;;5053812;28;19959;-77
2021/06/18 12:30:36;;;;;;;;;;;;;;;;;;5057217;28;19920;-76
2021/06/18 12:33:02;;;;;;;;;;;;;;;;;;5066571;28;19912;-77
2021/06/18 12:35:28;;;;;;;;;;;;;;;;;;5065714;28;19925;-77
2021/06/18 12:37:55;;;;;;;;;;;;;;;;;;5069907;28;19919;-77
2021/06/18 12:40:21;;;;;;;;;;;;;;;;;;5065965;28;19965;-77
2021/06/18 12:42:48;;;;;;;;;;;;;;;;;;5056470;28;19941;-77
2021/06/18 12:45:14;;;;;;;;;;;;;;;;;;5065371;28;19909;-77
2021/06/18 12:47:40;;;;;;;;;;;;;;;;;;5063008;28;20402;-76
2021/06/18 12:50:06;;;;;;;;;;;;;;;;;;5073810;28;20171;-77
2021/06/18 12:52:32;;;;;;;;;;;;;;;;;;5062901;28;19916;-76
2021/06/18 12:54:58;;;;;;;;;;;;;;;;;;5060664;28;19917;-76
2021/06/18 12:57:23;;;;;;;;;;;;;;;;;;5062561;28;19948;-77
2021/06/18 12:59:50;;;;;;;;;;;;;;;;;;5056349;28;19915;-77
2021/06/18 13:02:15;;;;;;;;;;;;;;;;;;5074896;28;20003;-76
2021/06/18 13:04:41;;;;;;;;;;;;;;;;;;5060467;28;20091;-77
2021/06/18 13:07:07;;;;;;;;;;;;;;;;;;5068147;28;19920;-76
2021/06/18 13:09:33;;;;;;;;;;;;;;;;;;5076839;28;19983;-76
2021/06/18 13:11:59;;;;;;;;;;;;;;;;;;5066505;28;19913;-76
2021/06/18 13:14:25;;;;;;;;;;;;;;;;;;5058995;28;20412;-76
2021/06/18 13:16:51;;;;;;;;;;;;;;;;;;5060871;28;19959;-77
2021/06/18 13:19:17;;;;;;;;;;;;;;;;;;5062458;28;19927;-76
2021/06/18 13:21:43;;;;;;;;;;;;;;;;;;5062239;28;20323;-76
2021/06/18 13:24:12;;;;;;;;;;;;;;;;;;5061898;28;19920;-76
2021/06/18 13:26:38;;;;;;;;;;;;;;;;;;5066334;28;20284;-76
2021/06/18 13:29:04;;;;;;;;;;;;;;;;;;5065254;28;19912;-76
2021/06/18 13:31:30;;;;;;;;;;;;;;;;;;5059729;28;20007;-76
2021/06/18 13:33:56;;;;;;;;;;;;;;;;;;5077990;28;20007;-77
2021/06/18 13:36:22;;;;;;;;;;;;;;;;;;5065778;28;20005;-77
2021/06/18 13:38:48;;;;;;;;;;;;;;;;;;5065883;28;19908;-77
2021/06/18 13:41:13;;;;;;;;;;;;;;;;;;5074754;28;19931;-77
2021/06/18 13:43:39;;;;;;;;;;;;;;;;;;5071683;28;19916;-77
2021/06/18 13:46:05;;;;;;;;;;;;;;;;;;5070693;28;19913;-76
2021/06/18 13:48:31;;;;;;;;;;;;;;;;;;5065287;28;19913;-76
2021/06/18 13:50:57;;;;;;;;;;;;;;;;;;5081799;28;19939;-77
2021/06/18 13:53:23;;;;;;;;;;;;;;;;;;5074990;28;19999;-76
2021/06/18 13:55:53;;;;;;;;;;;;;;;;;;5057390;28;20426;-77
2021/06/18 13:58:19;;;;;;;;;;;;;;;;;;5067082;28;19909;-77
2021/06/18 14:00:45;;;;;;;;;;;;;;;;;;5066001;28;20537;-77
2021/06/18 14:03:10;;;;;;;;;;;;;;;;;;5074952;28;19919;-77
2021/06/18 14:05:36;;;;;;;;;;;;;;;;;;5065996;28;20366;-77
2021/06/18 14:08:02;;;;;;;;;;;;;;;;;;5066676;28;19961;-76
2021/06/18 14:10:28;;;;;;;;;;;;;;;;;;5066549;28;20002;-77
2021/06/18 14:12:54;;;;;;;;;;;;;;;;;;5070299;28;19913;-77
2021/06/18 14:15:23;;;;;;;;;;;;;;;;;;5072897;28;19970;-77
2021/06/18 14:17:49;;;;;;;;;;;;;;;;;;5060678;28;20375;-76
2021/06/18 14:20:15;;;;;;;;;;;;;;;;;;5055074;28;19921;-77
2021/06/18 14:22:41;;;;;;;;;;;;;;;;;;5067116;28;19920;-78
2021/06/18 14:25:07;;;;;;;;;;;;;;;;;;5072917;28;19922;-77
2021/06/18 14:27:33;;;;;;;;;;;;;;;;;;5072558;28;20295;-77
2021/06/18 14:30:00;;;;;;;;;;;;;;;;;;5076192;28;19909;-77
2021/06/18 14:32:26;;;;;;;;;;;;;;;;;;5068704;28;20455;-77
2021/06/18 14:34:52;;;;;;;;;;;;;;;;;;5063209;28;19922;-77
2021/06/18 14:37:18;;;;;;;;;;;;;;;;;;5072046;28;19912;-77
2021/06/18 14:39:44;;;;;;;;;;;;;;;;;;5070929;28;19956;-77
2021/06/18 14:42:10;;;;;;;;;;;;;;;;;;5066171;28;20360;-78
2021/06/18 14:44:36;;;;;;;;;;;;;;;;;;5065120;28;19912;-78
2021/06/18 14:47:02;;;;;;;;;;;;;;;;;;5082535;28;20441;-78
2021/06/18 14:49:28;;;;;;;;;;;;;;;;;;5072915;28;20053;-80
2021/06/18 14:51:54;;;;;;;;;;;;;;;;;;5064451;28;20295;-79
2021/06/18 14:54:20;;;;;;;;;;;;;;;;;;5073754;28;19923;-79
2021/06/18 14:56:46;;;;;;;;;;;;;;;;;;5063485;28;19913;-79
2021/06/18 14:59:12;;;;;;;;;;;;;;;;;;5073585;28;20282;-79
2021/06/18 15:01:38;;;;;;;;;;;;;;;;;;5073545;28;19920;-79
2021/06/18 15:04:05;;;;;;;;;;;;;;;;;;5065818;28;19919;-79
2021/06/18 15:06:31;;;;;;;;;;;;;;;;;;5078589;28;20863;-79
2021/06/18 15:08:57;;;;;;;;;;;;;;;;;;5075791;28;19945;-79
2021/06/18 15:11:22;;;;;;;;;;;;;;;;;;5075269;28;20294;-79
2021/06/18 15:13:48;;;;;;;;;;;;;;;;;;5067294;28;20371;-78
2021/06/18 15:16:14;;;;;;;;;;;;;;;;;;5073212;28;19913;-78
2021/06/18 15:18:40;;;;;;;;;;;;;;;;;;5070415;28;19912;-78
2021/06/18 15:21:06;;;;;;;;;;;;;;;;;;5069926;28;20418;-78
2021/06/18 15:23:32;;;;;;;;;;;;;;;;;;5057436;28;19919;-78
2021/06/18 15:25:58;;;;;;;;;;;;;;;;;;5066207;28;19947;-78
2021/06/18 15:28:24;;;;;;;;;;;;;;;;;;5074176;28;19961;-78
2021/06/18 15:30:50;;;;;;;;;;;;;;;;;;5076376;28;19916;-78
2021/06/18 15:33:16;;;;;;;;;;;;;;;;;;5074880;28;19931;-77
2021/06/18 15:35:42;;;;;;;;;;;;;;;;;;5071033;28;19924;-82
2021/06/18 15:38:08;;;;;;;;;;;;;;;;;;5068744;28;20436;-77
2021/06/18 15:40:33;;;;;;;;;;;;;;;;;;5070153;28;19909;-77
2021/06/18 15:42:59;;;;;;;;;;;;;;;;;;5069955;28;19931;-78
2021/06/18 15:45:25;;;;;;;;;;;;;;;;;;5072027;28;19908;-77
2021/06/18 15:47:51;;;;;;;;;;;;;;;;;;5060403;28;19916;-77
2021/06/18 15:50:19;;;;;;;;;;;;;;;;;;5092056;28;19920;-78
2021/06/18 15:52:45;;;;;;;;;;;;;;;;;;5092532;28;19909;-77
2021/06/18 15:55:11;;;;;;;;;;;;;;;;;;5092095;28;19912;-77
2021/06/18 15:57:37;;;;;;;;;;;;;;;;;;5090795;28;19919;-77
2021/06/18 16:00:03;;;;;;;;;;;;;;;;;;5092167;28;19908;-78
2021/06/18 16:02:30;;;;;;;;;;;;;;;;;;5078914;28;20020;-78
2021/06/18 16:04:55;;;;;;;;;;;;;;;;;;5073392;28;19908;-78
2021/06/18 16:07:21;;;;;;;;;;;;;;;;;;5072083;28;20390;-79
2021/06/18 16:09:47;;;;;;;;;;;;;;;;;;5060755;28;19908;-78
2021/06/18 16:12:13;;;;;;;;;;;;;;;;;;5051658;28;19913;-78
2021/06/18 16:14:39;;;;;;;;;;;;;;;;;;5090951;28;20358;-79
2021/06/18 16:17:05;;;;;;;;;;;;;;;;;;5065323;28;19913;-78
2021/06/18 16:19:31;;;;;;;;;;;;;;;;;;5072666;28;19944;-77
2021/06/18 16:21:57;;;;;;;;;;;;;;;;;;5071743;28;19908;-78
2021/06/18 16:24:23;;;;;;;;;;;;;;;;;;5071558;28;20290;-79
2021/06/18 16:26:49;;;;;;;;;;;;;;;;;;5056628;28;19992;-80
2021/06/18 16:29:15;;;;;;;;;;;;;;;;;;5084460;28;20283;-80
2021/06/18 16:31:41;;;;;;;;;;;;;;;;;;5080216;28;20012;-79
2021/06/18 16:34:07;;;;;;;;;;;;;;;;;;5070671;28;20525;-79
2021/06/18 16:36:33;;;;;;;;;;;;;;;;;;5057110;28;20043;-80